Time,TemperatureF,DewpointF,PressureIn,WindDirection,WindDirectionDegrees,WindSpeedMPH,WindSpeedGustMPH,Humidity,HourlyPrecipIn,Conditions,Clouds,dailyrainin,SoftwareType,DateUTC
2013-08-06 00:04:00,71.6,69.5,29.86,West,275,0.0,0.0,93,0.00,,,0.00,Wunderground v.1.15,2013-08-06 05:04:00,
2013-08-06 00:10:00,71.5,69.4,29.87,West,275,0.0,0.0,93,0.00,,,0.00,Wunderground v.1.15,2013-08-06 05:10:00,
2013-08-06 00:16:00,71.8,70.0,29.87,West,275,0.0,0.0,94,0.00,,,0.00,Wunderground v.1.15,2013-08-06 05:16:00,
2013-08-06 00:22:00,72.4,70.6,29.87,West,275,0.0,0.0,94,0.00,,,0.00,Wunderground v.1.15,2013-08-06 05:22:00,
2013-08-06 00:27:00,72.4,70.6,29.87,West,275,0.0,0.0,94,0.00,,,0.00,Wunderground v.1.15,2013-08-06 05:27:00,
2013-08-06 00:33:00,72.8,71.0,29.87,West,275,0.0,2.0,94,0.00,,,0.00,Wunderground v.1.15,2013-08-06 05:33:00,
2013-08-06 00:39:00,71.6,69.5,29.88,West,275,0.0,2.0,93,0.00,,,0.00,Wunderground v.1.15,2013-08-06 05:39:00,
2013-08-06 00:45:00,71.1,69.0,29.88,West,275,0.0,2.0,93,0.00,,,0.00,Wunderground v.1.15,2013-08-06 05:45:00,
2013-08-06 00:50:00,71.1,69.0,29.88,West,275,0.0,2.0,94,0.00,,,0.00,weatherlink.com 1.10,2013-08-06 05:50:00,
2013-08-06 00:55:00,70.8,69.0,29.87,West,275,0.0,2.0,94,0.00,,,0.00,Wunderground v.1.15,2013-08-06 05:55:00,
2013-08-06 01:00:00,70.8,69.0,29.87,West,275,0.0,0.0,94,0.00,,,0.00,Wunderground v.1.15,2013-08-06 06:00:00,
2013-08-06 01:06:00,70.7,68.9,29.87,West,275,0.0,0.0,94,0.00,,,0.00,Wunderground v.1.15,2013-08-06 06:06:00,
2013-08-06 01:12:00,70.8,69.0,29.86,West,275,0.0,0.0,94,0.00,,,0.00,Wunderground v.1.15,2013-08-06 06:12:00,
2013-08-06 01:17:00,71.0,69.2,29.86,West,275,0.0,0.0,94,0.00,,,0.00,Wunderground v.1.15,2013-08-06 06:17:00,
2013-08-06 01:23:00,71.5,69.7,29.86,West,275,0.0,0.0,94,0.00,,,0.00,Wunderground v.1.15,2013-08-06 06:23:00,
2013-08-06 01:28:00,71.8,70.0,29.86,West,275,0.0,0.0,94,0.00,,,0.00,Wunderground v.1.15,2013-08-06 06:28:00,
2013-08-06 01:34:00,71.9,70.1,29.86,West,275,0.0,0.0,94,0.00,,,0.00,Wunderground v.1.15,2013-08-06 06:34:00,
2013-08-06 01:39:00,72.0,70.2,29.86,West,275,0.0,0.0,94,0.00,,,0.00,Wunderground v.1.15,2013-08-06 06:39:00,
2013-08-06 01:45:00,71.6,69.8,29.86,West,275,0.0,2.0,94,0.00,,,0.00,Wunderground v.1.15,2013-08-06 06:45:00,
2013-08-06 01:51:00,71.3,69.5,29.86,West,275,1.0,1.0,94,0.00,,,0.00,Wunderground v.1.15,2013-08-06 06:51:00,
2013-08-06 01:57:00,70.6,68.8,29.86,West,275,0.0,1.0,94,0.00,,,0.00,Wunderground v.1.15,2013-08-06 06:57:00,
2013-08-06 02:02:00,70.4,68.6,29.85,West,275,0.0,0.0,94,0.00,,,0.00,Wunderground v.1.15,2013-08-06 07:02:00,
2013-08-06 02:08:00,70.5,68.7,29.85,West,275,0.0,0.0,94,0.00,,,0.00,Wunderground v.1.15,2013-08-06 07:08:00,
2013-08-06 02:14:00,70.6,68.8,29.84,West,275,0.0,0.0,94,0.00,,,0.00,Wunderground v.1.15,2013-08-06 07:14:00,
2013-08-06 02:20:00,70.3,68.5,29.84,West,275,0.0,0.0,94,0.00,,,0.00,Wunderground v.1.15,2013-08-06 07:20:00,
2013-08-06 02:25:00,70.1,68.3,29.84,West,275,0.0,0.0,94,0.00,,,0.00,Wunderground v.1.15,2013-08-06 07:25:00,
2013-08-06 02:31:00,70.2,68.4,29.84,West,275,0.0,0.0,94,0.00,,,0.00,Wunderground v.1.15,2013-08-06 07:31:00,
2013-08-06 02:36:00,70.6,68.8,29.84,West,275,0.0,0.0,94,0.00,,,0.00,Wunderground v.1.15,2013-08-06 07:36:00,
2013-08-06 02:42:00,71.0,69.5,29.84,West,275,0.0,0.0,95,0.00,,,0.00,Wunderground v.1.15,2013-08-06 07:42:00,
2013-08-06 02:47:00,70.6,68.8,29.84,West,275,0.0,0.0,94,0.00,,,0.00,Wunderground v.1.15,2013-08-06 07:47:00,
2013-08-06 02:53:00,69.5,67.7,29.84,West,275,0.0,0.0,94,0.00,,,0.00,Wunderground v.1.15,2013-08-06 07:53:00,
2013-08-06 02:59:00,69.2,67.4,29.84,West,275,0.0,0.0,94,0.00,,,0.00,Wunderground v.1.15,2013-08-06 07:59:00,
2013-08-06 03:05:00,69.3,67.5,29.84,West,275,0.0,0.0,94,0.00,,,0.00,Wunderground v.1.15,2013-08-06 08:05:00,
2013-08-06 03:10:00,68.9,67.1,29.84,West,275,0.0,1.0,94,0.00,,,0.00,Wunderground v.1.15,2013-08-06 08:10:00,
2013-08-06 03:16:00,68.8,67.0,29.84,West,275,0.0,1.0,94,0.00,,,0.00,Wunderground v.1.15,2013-08-06 08:16:00,
2013-08-06 03:21:00,69.3,67.8,29.84,West,275,0.0,0.0,95,0.00,,,0.00,Wunderground v.1.15,2013-08-06 08:21:00,
2013-08-06 03:27:00,69.4,67.9,29.84,West,275,0.0,0.0,95,0.00,,,0.00,Wunderground v.1.15,2013-08-06 08:27:00,
2013-08-06 03:32:00,69.2,67.4,29.84,West,275,0.0,0.0,94,0.00,,,0.00,Wunderground v.1.15,2013-08-06 08:32:00,
2013-08-06 03:38:00,69.8,68.3,29.83,West,275,0.0,0.0,95,0.00,,,0.00,Wunderground v.1.15,2013-08-06 08:38:00,
2013-08-06 03:45:00,69.5,68.0,29.83,West,275,0.0,0.0,95,0.00,,,0.00,Wunderground v.1.15,2013-08-06 08:45:00,
2013-08-06 03:50:00,69.0,67.5,29.83,West,275,1.0,2.0,95,0.00,,,0.00,Wunderground v.1.15,2013-08-06 08:50:00,
2013-08-06 03:56:00,68.4,66.6,29.83,West,275,1.0,2.0,94,0.00,,,0.00,Wunderground v.1.15,2013-08-06 08:56:00,
2013-08-06 04:02:00,68.0,66.2,29.84,West,275,0.0,0.0,94,0.00,,,0.00,Wunderground v.1.15,2013-08-06 09:02:00,
2013-08-06 04:08:00,68.0,66.2,29.83,West,275,0.0,0.0,94,0.00,,,0.00,Wunderground v.1.15,2013-08-06 09:08:00,
2013-08-06 04:13:00,68.1,66.6,29.83,West,275,0.0,0.0,95,0.00,,,0.00,Wunderground v.1.15,2013-08-06 09:13:00,
2013-08-06 04:19:00,68.2,66.7,29.82,West,275,0.0,0.0,95,0.00,,,0.00,Wunderground v.1.15,2013-08-06 09:19:00,
2013-08-06 04:25:00,68.5,67.0,29.83,West,275,0.0,0.0,95,0.00,,,0.00,Wunderground v.1.15,2013-08-06 09:25:00,
2013-08-06 04:30:00,69.2,67.7,29.82,West,275,0.0,0.0,95,0.00,,,0.00,Wunderground v.1.15,2013-08-06 09:30:00,
2013-08-06 04:36:00,69.5,68.0,29.82,West,275,0.0,2.0,95,0.00,,,0.00,Wunderground v.1.15,2013-08-06 09:36:00,
2013-08-06 04:42:00,69.7,68.2,29.82,West,275,1.0,2.0,95,0.00,,,0.00,Wunderground v.1.15,2013-08-06 09:42:00,
2013-08-06 04:47:00,70.0,68.5,29.82,West,275,1.0,2.0,95,0.00,,,0.00,Wunderground v.1.15,2013-08-06 09:47:00,
2013-08-06 04:53:00,69.3,67.8,29.82,West,275,0.0,2.0,95,0.00,,,0.00,Wunderground v.1.15,2013-08-06 09:53:00,
2013-08-06 04:58:00,69.0,67.5,29.81,West,275,0.0,2.0,95,0.00,,,0.00,Wunderground v.1.15,2013-08-06 09:58:00,
2013-08-06 05:04:00,68.8,67.3,29.81,West,275,0.0,0.0,95,0.00,,,0.00,Wunderground v.1.15,2013-08-06 10:04:00,
2013-08-06 05:09:00,68.9,67.4,29.81,West,275,0.0,0.0,95,0.00,,,0.00,Wunderground v.1.15,2013-08-06 10:09:00,
2013-08-06 05:15:00,69.2,67.7,29.81,West,275,0.0,0.0,95,0.00,,,0.00,Wunderground v.1.15,2013-08-06 10:15:00,
2013-08-06 05:21:00,69.1,67.6,29.81,West,275,1.0,2.0,95,0.00,,,0.00,Wunderground v.1.15,2013-08-06 10:21:00,
2013-08-06 05:26:00,69.4,67.9,29.82,West,275,1.0,2.0,95,0.00,,,0.00,Wunderground v.1.15,2013-08-06 10:26:00,
2013-08-06 05:32:00,69.6,68.1,29.82,West,275,2.0,2.0,95,0.00,,,0.00,Wunderground v.1.15,2013-08-06 10:32:00,
2013-08-06 05:37:00,69.6,68.1,29.82,West,275,1.0,2.0,95,0.00,,,0.00,Wunderground v.1.15,2013-08-06 10:37:00,
2013-08-06 05:43:00,68.9,67.4,29.82,West,275,0.0,1.0,95,0.00,,,0.00,Wunderground v.1.15,2013-08-06 10:43:00,
2013-08-06 05:49:00,68.2,66.7,29.82,West,275,1.0,2.0,95,0.00,,,0.00,Wunderground v.1.15,2013-08-06 10:49:00,
2013-08-06 05:55:00,68.2,66.7,29.82,West,275,0.0,1.0,95,0.00,,,0.00,Wunderground v.1.15,2013-08-06 10:55:00,
2013-08-06 06:00:00,68.5,67.0,29.82,West,275,0.0,0.0,95,0.00,,,0.00,Wunderground v.1.15,2013-08-06 11:00:00,
2013-08-06 06:06:00,68.4,66.9,29.82,West,275,0.0,0.0,95,0.00,,,0.00,Wunderground v.1.15,2013-08-06 11:06:00,
2013-08-06 06:11:00,68.5,67.0,29.83,West,275,0.0,0.0,95,0.00,,,0.00,Wunderground v.1.15,2013-08-06 11:11:00,
2013-08-06 06:17:00,68.5,67.0,29.83,West,275,0.0,0.0,95,0.00,,,0.00,Wunderground v.1.15,2013-08-06 11:17:00,
2013-08-06 06:22:00,68.4,66.9,29.82,West,275,0.0,0.0,95,0.00,,,0.00,Wunderground v.1.15,2013-08-06 11:22:00,
2013-08-06 06:28:00,68.4,66.9,29.83,West,275,0.0,0.0,95,0.00,,,0.00,Wunderground v.1.15,2013-08-06 11:28:00,
2013-08-06 06:33:00,68.8,67.3,29.84,West,275,0.0,3.0,95,0.00,,,0.00,Wunderground v.1.15,2013-08-06 11:33:00,
2013-08-06 06:39:00,69.4,67.9,29.84,West,275,0.0,3.0,95,0.00,,,0.00,Wunderground v.1.15,2013-08-06 11:39:00,
2013-08-06 06:45:00,69.7,68.2,29.84,West,275,0.0,3.0,95,0.00,,,0.00,Wunderground v.1.15,2013-08-06 11:45:00,
2013-08-06 06:50:00,70.0,68.5,29.84,West,275,0.0,3.0,95,0.00,,,0.00,Wunderground v.1.15,2013-08-06 11:50:00,
2013-08-06 06:56:00,69.4,67.9,29.85,West,275,2.0,3.0,95,0.00,,,0.00,Wunderground v.1.15,2013-08-06 11:56:00,
2013-08-06 07:01:00,69.6,68.1,29.86,West,275,3.0,3.0,95,0.00,,,0.00,Wunderground v.1.15,2013-08-06 12:01:00,
2013-08-06 07:07:00,70.4,68.9,29.85,WNW,298,3.0,5.0,95,0.00,,,0.00,Wunderground v.1.15,2013-08-06 12:07:00,
2013-08-06 07:13:00,70.2,68.7,29.88,NW,315,7.0,13.0,95,0.00,,,0.00,Wunderground v.1.15,2013-08-06 12:13:00,
2013-08-06 07:18:00,67.1,65.3,29.88,North,360,11.0,18.0,94,1.44,,,0.06,Wunderground v.1.15,2013-08-06 12:18:00,
2013-08-06 07:24:00,66.1,64.3,29.89,NE,54,8.0,12.0,94,0.42,,,0.16,Wunderground v.1.15,2013-08-06 12:24:00,
2013-08-06 07:29:00,65.8,64.0,29.88,NNW,345,4.0,12.0,94,0.40,,,0.20,Wunderground v.1.15,2013-08-06 12:29:00,
2013-08-06 07:35:00,65.9,64.1,29.88,NE,38,4.0,8.0,94,0.09,,,0.21,Wunderground v.1.15,2013-08-06 12:35:00,
2013-08-06 07:41:00,66.1,64.6,29.90,ENE,65,5.0,6.0,95,0.09,,,0.21,Wunderground v.1.15,2013-08-06 12:41:00,
2013-08-06 07:46:00,66.1,64.6,29.89,ENE,62,4.0,6.0,95,0.32,,,0.25,Wunderground v.1.15,2013-08-06 12:46:00,
2013-08-06 07:52:00,66.2,64.7,29.89,North,11,2.0,3.0,95,0.08,,,0.25,Wunderground v.1.15,2013-08-06 12:52:00,
2013-08-06 07:58:00,66.3,64.8,29.88,ENE,59,1.0,4.0,95,0.04,,,0.25,Wunderground v.1.15,2013-08-06 12:58:00,
2013-08-06 08:03:00,66.4,64.9,29.88,ESE,121,2.0,4.0,95,0.00,,,0.25,Wunderground v.1.15,2013-08-06 13:03:00,
2013-08-06 08:08:00,66.2,64.7,29.88,East,81,4.0,7.0,95,0.00,,,0.25,Wunderground v.1.15,2013-08-06 13:08:00,
2013-08-06 08:14:00,65.7,64.2,29.88,NE,46,4.0,4.0,95,0.00,,,0.25,Wunderground v.1.15,2013-08-06 13:14:00,
2013-08-06 08:20:00,65.4,63.6,29.89,NE,48,3.0,3.0,94,0.00,,,0.25,Wunderground v.1.15,2013-08-06 13:20:00,
2013-08-06 08:25:00,65.4,63.9,29.89,NE,48,2.0,3.0,95,0.00,,,0.25,Wunderground v.1.15,2013-08-06 13:25:00,
2013-08-06 08:31:00,65.4,63.9,29.90,NE,48,0.0,23.0,95,0.00,,,0.25,Wunderground v.1.15,2013-08-06 13:31:00,
2013-08-06 08:37:00,65.4,64.0,29.90,NE,48,0.0,2.0,95,0.04,,,0.25,weatherlink.com 1.10,2013-08-06 13:37:00,
2013-08-06 08:42:00,65.4,63.9,29.90,North,355,1.0,23.0,95,0.00,,,0.25,Wunderground v.1.15,2013-08-06 13:42:00,
2013-08-06 08:48:00,65.4,63.9,29.95,WNW,288,4.0,23.0,95,0.00,,,0.26,Wunderground v.1.15,2013-08-06 13:48:00,
2013-08-06 08:53:00,65.3,63.8,29.96,NNW,334,6.0,23.0,95,0.74,,,0.31,Wunderground v.1.15,2013-08-06 13:53:00,
2013-08-06 08:59:00,65.4,63.9,29.96,SW,228,3.0,23.0,95,0.43,,,0.35,Wunderground v.1.15,2013-08-06 13:59:00,
2013-08-06 09:05:00,65.5,64.0,29.95,SW,223,2.0,4.0,95,0.28,,,0.39,Wunderground v.1.15,2013-08-06 14:05:00,
2013-08-06 09:10:00,65.5,64.0,29.93,ESE,108,4.0,4.0,95,0.11,,,0.40,Wunderground v.1.15,2013-08-06 14:10:00,
2013-08-06 09:16:00,65.6,64.1,29.89,East,97,5.0,8.0,95,0.07,,,0.41,Wunderground v.1.15,2013-08-06 14:16:00,
2013-08-06 09:21:00,65.8,64.3,29.88,ESE,112,7.0,9.0,95,0.08,,,0.42,Wunderground v.1.15,2013-08-06 14:21:00,
2013-08-06 09:27:00,66.0,64.5,29.85,ESE,117,8.0,11.0,95,0.08,,,0.42,Wunderground v.1.15,2013-08-06 14:27:00,
2013-08-06 09:33:00,65.9,64.4,29.87,SE,138,8.0,9.0,95,0.07,,,0.43,Wunderground v.1.15,2013-08-06 14:33:00,
2013-08-06 09:38:00,66.0,64.5,29.87,SSE,158,4.0,9.0,95,0.07,,,0.43,Wunderground v.1.15,2013-08-06 14:38:00,
2013-08-06 09:44:00,65.8,64.3,29.86,SSE,155,5.0,8.0,95,0.04,,,0.43,Wunderground v.1.15,2013-08-06 14:44:00,
2013-08-06 09:49:00,65.8,64.3,29.85,SSE,157,6.0,11.0,95,0.00,,,0.43,Wunderground v.1.15,2013-08-06 14:49:00,
2013-08-06 09:55:00,66.0,64.5,29.85,SE,130,5.0,8.0,95,0.00,,,0.43,Wunderground v.1.15,2013-08-06 14:55:00,
2013-08-06 10:00:00,66.4,64.9,29.85,SE,135,6.0,6.0,95,0.00,,,0.43,Wunderground v.1.15,2013-08-06 15:00:00,
2013-08-06 10:06:00,66.7,65.2,29.85,SE,144,5.0,6.0,95,0.00,,,0.43,Wunderground v.1.15,2013-08-06 15:06:00,
2013-08-06 10:11:00,67.2,65.7,29.85,ESE,122,4.0,5.0,95,0.00,,,0.43,Wunderground v.1.15,2013-08-06 15:11:00,
2013-08-06 10:17:00,67.5,66.0,29.85,SE,140,4.0,6.0,95,0.00,,,0.43,Wunderground v.1.15,2013-08-06 15:17:00,
2013-08-06 10:23:00,67.5,66.0,29.85,SE,143,3.0,7.0,95,0.01,,,0.43,weatherlink.com 1.10,2013-08-06 15:23:00,
2013-08-06 10:28:00,67.5,65.7,29.84,SSE,152,5.0,7.0,94,0.00,,,0.43,Wunderground v.1.15,2013-08-06 15:28:00,
2013-08-06 10:34:00,67.7,65.9,29.84,SE,146,4.0,14.0,94,0.00,,,0.43,Wunderground v.1.15,2013-08-06 15:34:00,
2013-08-06 10:39:00,67.9,66.1,29.84,ESE,105,3.0,14.0,94,0.00,,,0.43,Wunderground v.1.15,2013-08-06 15:39:00,
2013-08-06 10:45:00,68.4,66.6,29.84,ESE,115,3.0,14.0,94,0.00,,,0.43,Wunderground v.1.15,2013-08-06 15:45:00,
2013-08-06 10:51:00,68.6,66.5,29.83,SSE,154,4.0,14.0,93,0.00,,,0.43,Wunderground v.1.15,2013-08-06 15:51:00,
2013-08-06 10:56:00,68.7,66.6,29.83,South,188,5.0,14.0,93,0.00,,,0.43,Wunderground v.1.15,2013-08-06 15:56:00,
2013-08-06 11:02:00,68.9,66.5,29.83,South,180,5.0,5.0,92,0.00,,,0.43,Wunderground v.1.15,2013-08-06 16:02:00,
2013-08-06 11:07:00,69.0,66.0,29.83,South,185,3.0,9.0,91,0.00,,,0.43,weatherlink.com 1.10,2013-08-06 16:07:00,
2013-08-06 11:13:00,69.4,66.7,29.83,SSE,160,4.0,5.0,91,0.00,,,0.43,Wunderground v.1.15,2013-08-06 16:13:00,
2013-08-06 11:18:00,69.7,66.6,29.83,SSW,205,4.0,9.0,90,0.00,,,0.43,Wunderground v.1.15,2013-08-06 16:18:00,
2013-08-06 11:24:00,70.1,66.7,29.83,SSW,196,5.0,8.0,89,0.00,,,0.43,Wunderground v.1.15,2013-08-06 16:24:00,
2013-08-06 11:30:00,70.6,67.2,29.83,WSW,240,4.0,6.0,89,0.00,,,0.43,Wunderground v.1.15,2013-08-06 16:30:00,
2013-08-06 11:35:00,71.2,67.8,29.83,WSW,249,4.0,9.0,89,0.00,,,0.43,Wunderground v.1.15,2013-08-06 16:35:00,
2013-08-06 11:41:00,72.2,68.8,29.83,SW,234,5.0,9.0,89,0.00,,,0.43,Wunderground v.1.15,2013-08-06 16:41:00,
2013-08-06 11:47:00,72.9,68.8,29.82,SSW,196,7.0,9.0,87,0.00,,,0.43,Wunderground v.1.15,2013-08-06 16:47:00,
2013-08-06 11:53:00,73.7,69.0,29.82,SSW,213,12.0,14.0,85,0.00,,,0.43,weatherlink.com 1.10,2013-08-06 16:53:00,
2013-08-06 11:58:00,74.3,69.5,29.81,WSW,253,8.0,12.0,85,0.00,,,0.43,Wunderground v.1.15,2013-08-06 16:58:00,
2013-08-06 12:04:00,75.2,69.7,29.81,WSW,244,9.0,11.0,83,0.00,,,0.43,Wunderground v.1.15,2013-08-06 17:04:00,
2013-08-06 12:10:00,76.5,69.9,29.81,SSW,202,10.0,10.0,80,0.00,,,0.43,Wunderground v.1.15,2013-08-06 17:10:00,
2013-08-06 12:15:00,77.5,71.2,29.81,SW,228,7.0,10.0,81,0.00,,,0.43,Wunderground v.1.15,2013-08-06 17:15:00,
2013-08-06 12:21:00,78.3,70.9,29.80,South,190,6.0,9.0,78,0.00,,,0.43,Wunderground v.1.15,2013-08-06 17:21:00,
2013-08-06 12:26:00,79.1,71.3,29.80,SW,215,7.0,11.0,77,0.00,,,0.43,Wunderground v.1.15,2013-08-06 17:26:00,
2013-08-06 12:31:00,80.1,71.8,29.80,SSW,198,7.0,12.0,76,0.00,,,0.43,Wunderground v.1.15,2013-08-06 17:31:00,
2013-08-06 12:36:00,81.0,71.1,29.79,SW,233,8.0,14.0,72,0.00,,,0.43,Wunderground v.1.15,2013-08-06 17:36:00,
2013-08-06 12:42:00,81.1,72.0,29.80,SSW,206,9.0,12.0,74,0.00,,,0.43,Wunderground v.1.15,2013-08-06 17:42:00,
2013-08-06 12:48:00,80.9,71.8,29.80,South,181,9.0,12.0,74,0.00,,,0.43,Wunderground v.1.15,2013-08-06 17:48:00,
2013-08-06 12:53:00,81.4,72.3,29.80,SSW,213,9.0,12.0,74,0.00,,,0.43,Wunderground v.1.15,2013-08-06 17:53:00,
2013-08-06 13:00:00,81.9,72.8,29.80,WSW,246,9.0,9.0,74,0.00,,,0.43,Wunderground v.1.15,2013-08-06 18:00:00,
2013-08-06 13:06:00,82.3,72.4,29.80,SSW,210,9.0,13.0,72,0.00,,,0.43,Wunderground v.1.15,2013-08-06 18:06:00,
2013-08-06 13:11:00,82.9,73.8,29.80,SW,225,8.0,8.0,74,0.00,,,0.43,Wunderground v.1.15,2013-08-06 18:11:00,
2013-08-06 13:17:00,83.4,73.0,29.80,SW,231,8.0,11.0,71,0.00,,,0.43,Wunderground v.1.15,2013-08-06 18:17:00,
2013-08-06 13:22:00,83.5,72.3,29.80,SSW,198,9.0,13.0,69,0.00,,,0.43,Wunderground v.1.15,2013-08-06 18:22:00,
2013-08-06 13:27:00,83.8,72.5,29.79,SW,217,10.0,13.0,69,0.00,,,0.43,Wunderground v.1.15,2013-08-06 18:27:00,
2013-08-06 13:33:00,84.2,72.0,29.80,SSW,207,9.0,17.0,67,0.00,,,0.43,Wunderground v.1.15,2013-08-06 18:33:00,
2013-08-06 13:38:00,84.1,72.4,29.80,SW,217,9.0,17.0,68,0.00,,,0.43,Wunderground v.1.15,2013-08-06 18:38:00,
2013-08-06 13:44:00,84.3,72.6,29.80,SW,223,9.0,17.0,68,0.00,,,0.43,Wunderground v.1.15,2013-08-06 18:44:00,
2013-08-06 13:50:00,84.5,72.3,29.80,SW,232,10.0,10.0,67,0.00,,,0.43,Wunderground v.1.15,2013-08-06 18:50:00,
2013-08-06 13:55:00,84.5,71.9,29.80,SSW,207,10.0,17.0,66,0.00,,,0.43,Wunderground v.1.15,2013-08-06 18:55:00,
2013-08-06 14:00:00,84.7,73.0,29.80,WSW,250,10.0,10.0,68,0.00,,,0.43,Wunderground v.1.15,2013-08-06 19:00:00,
2013-08-06 14:06:00,84.7,72.5,29.80,SW,218,10.0,14.0,67,0.00,,,0.43,Wunderground v.1.15,2013-08-06 19:06:00,
2013-08-06 14:07:00,84.6,72.9,29.80,SW,228,10.0,14.0,68,0.00,,,0.43,Wunderground v.1.15,2013-08-06 19:07:00,
2013-08-06 14:13:00,84.7,73.0,29.80,SW,218,10.0,11.0,68,0.00,,,0.43,Wunderground v.1.15,2013-08-06 19:13:00,
2013-08-06 14:19:00,85.1,73.8,29.80,SW,214,8.0,11.0,69,0.00,,,0.43,Wunderground v.1.15,2013-08-06 19:19:00,
2013-08-06 14:24:00,85.5,73.7,29.80,SSW,203,7.0,7.0,68,0.00,,,0.43,Wunderground v.1.15,2013-08-06 19:24:00,
2013-08-06 14:30:00,85.7,74.4,29.80,WSW,247,8.0,8.0,69,0.00,,,0.43,Wunderground v.1.15,2013-08-06 19:30:00,
2013-08-06 14:36:00,85.9,74.5,29.79,SSW,203,8.0,17.0,69,0.00,,,0.43,Wunderground v.1.15,2013-08-06 19:36:00,
2013-08-06 14:42:00,85.9,74.5,29.80,SW,217,7.0,17.0,69,0.00,,,0.43,Wunderground v.1.15,2013-08-06 19:42:00,
2013-08-06 14:47:00,86.0,73.8,29.80,WSW,254,7.0,17.0,67,0.00,,,0.43,Wunderground v.1.15,2013-08-06 19:47:00,
2013-08-06 14:53:00,85.9,73.0,29.80,SSE,157,6.0,13.0,66,0.00,,,0.43,weatherlink.com 1.10,2013-08-06 19:53:00,
2013-08-06 15:01:00,86.0,74.2,29.80,WSW,239,7.0,10.0,68,0.00,,,0.43,Wunderground v.1.15,2013-08-06 20:01:00,
2013-08-06 15:06:00,86.0,75.1,29.80,WSW,244,7.0,10.0,70,0.00,,,0.43,Wunderground v.1.15,2013-08-06 20:06:00,
2013-08-06 15:11:00,86.3,74.9,29.80,WSW,246,7.0,7.0,69,0.00,,,0.43,Wunderground v.1.15,2013-08-06 20:11:00,
2013-08-06 15:17:00,86.6,75.6,29.80,SW,215,7.0,11.0,70,0.00,,,0.43,Wunderground v.1.15,2013-08-06 20:17:00,
2013-08-06 15:23:00,86.6,74.3,29.80,SW,234,8.0,11.0,67,0.00,,,0.43,Wunderground v.1.15,2013-08-06 20:23:00,
2013-08-06 15:29:00,86.5,74.2,29.80,SSW,213,9.0,11.0,67,0.00,,,0.43,Wunderground v.1.15,2013-08-06 20:29:00,
2013-08-06 15:34:00,86.3,74.5,29.80,West,263,8.0,16.0,68,0.00,,,0.43,Wunderground v.1.15,2013-08-06 20:34:00,
2013-08-06 15:38:00,86.2,74.8,29.80,SW,234,8.0,16.0,69,0.00,,,0.43,Wunderground v.1.15,2013-08-06 20:38:00,
2013-08-06 15:44:00,86.5,75.5,29.80,SW,236,7.0,16.0,70,0.00,,,0.43,Wunderground v.1.15,2013-08-06 20:44:00,
2013-08-06 15:50:00,86.2,74.4,29.80,SW,225,6.0,16.0,68,0.00,,,0.43,Wunderground v.1.15,2013-08-06 20:50:00,
2013-08-06 15:55:00,85.8,74.4,29.80,SW,227,7.0,16.0,69,0.00,,,0.43,Wunderground v.1.15,2013-08-06 20:55:00,
2013-08-06 16:00:00,85.8,75.3,29.80,SW,233,7.0,8.0,71,0.00,,,0.43,Wunderground v.1.15,2013-08-06 21:00:00,
2013-08-06 16:06:00,86.4,75.5,29.81,West,271,7.0,10.0,70,0.00,,,0.43,Wunderground v.1.15,2013-08-06 21:06:00,
2013-08-06 16:12:00,87.2,76.2,29.81,SW,222,7.0,8.0,70,0.00,,,0.43,Wunderground v.1.15,2013-08-06 21:12:00,
2013-08-06 16:18:00,87.4,76.0,29.81,WSW,248,6.0,8.0,69,0.00,,,0.43,Wunderground v.1.15,2013-08-06 21:18:00,
2013-08-06 16:23:00,87.5,75.6,29.80,WSW,252,6.0,9.0,68,0.00,,,0.43,Wunderground v.1.15,2013-08-06 21:23:00,
2013-08-06 16:29:00,87.4,74.6,29.81,West,264,7.0,10.0,66,0.00,,,0.43,Wunderground v.1.15,2013-08-06 21:29:00,
2013-08-06 16:34:00,86.9,75.1,29.81,SW,228,6.0,15.0,68,0.00,,,0.43,Wunderground v.1.15,2013-08-06 21:34:00,
2013-08-06 16:40:00,86.4,75.5,29.80,WSW,243,5.0,15.0,70,0.00,,,0.43,Wunderground v.1.15,2013-08-06 21:40:00,
2013-08-06 16:45:00,86.2,75.7,29.80,West,262,5.0,15.0,71,0.00,,,0.43,Wunderground v.1.15,2013-08-06 21:45:00,
2013-08-06 16:51:00,86.9,76.4,29.80,SW,232,5.0,15.0,71,0.00,,,0.43,Wunderground v.1.15,2013-08-06 21:51:00,
2013-08-06 16:57:00,87.1,74.8,29.80,WSW,239,4.0,15.0,67,0.00,,,0.43,Wunderground v.1.15,2013-08-06 21:57:00,
2013-08-06 17:02:00,86.7,75.3,29.81,SW,236,4.0,5.0,69,0.00,,,0.43,Wunderground v.1.15,2013-08-06 22:02:00,
2013-08-06 17:08:00,86.3,75.4,29.80,WSW,238,4.0,5.0,70,0.00,,,0.43,Wunderground v.1.15,2013-08-06 22:08:00,
2013-08-06 17:13:00,85.9,75.0,29.81,WSW,239,2.0,3.0,70,0.00,,,0.43,Wunderground v.1.15,2013-08-06 22:13:00,
2013-08-06 17:19:00,85.5,75.4,29.81,WSW,245,2.0,4.0,72,0.00,,,0.43,Wunderground v.1.15,2013-08-06 22:19:00,
2013-08-06 17:24:00,85.4,75.0,29.80,WSW,245,0.0,3.0,72,0.00,,,0.43,weatherlink.com 1.10,2013-08-06 22:24:00,
2013-08-06 17:30:00,85.6,75.1,29.80,WSW,245,1.0,1.0,71,0.00,,,0.43,Wunderground v.1.15,2013-08-06 22:30:00,
2013-08-06 17:35:00,86.1,76.0,29.81,WSW,245,0.0,12.0,72,0.00,,,0.43,Wunderground v.1.15,2013-08-06 22:35:00,
2013-08-06 17:41:00,86.7,75.3,29.80,WSW,252,1.0,12.0,69,0.00,,,0.43,Wunderground v.1.15,2013-08-06 22:41:00,
2013-08-06 17:47:00,86.8,75.4,29.80,WSW,252,2.0,12.0,69,0.00,,,0.43,Wunderground v.1.15,2013-08-06 22:47:00,
2013-08-06 17:52:00,86.9,75.5,29.80,WSW,252,2.0,12.0,69,0.00,,,0.43,Wunderground v.1.15,2013-08-06 22:52:00,
2013-08-06 17:59:00,87.4,76.0,29.81,WSW,252,1.0,12.0,69,0.00,,,0.43,Wunderground v.1.15,2013-08-06 22:59:00,
2013-08-06 18:05:00,87.8,75.9,29.80,WSW,252,1.0,1.0,68,0.00,,,0.43,Wunderground v.1.15,2013-08-06 23:05:00,
2013-08-06 18:10:00,87.9,75.6,29.80,WSW,252,0.0,0.0,67,0.00,,,0.43,Wunderground v.1.15,2013-08-06 23:10:00,
2013-08-06 18:16:00,87.8,76.4,29.80,WSW,252,0.0,0.0,69,0.00,,,0.43,Wunderground v.1.15,2013-08-06 23:16:00,
2013-08-06 18:21:00,87.8,75.5,29.80,WSW,252,0.0,0.0,67,0.00,,,0.43,Wunderground v.1.15,2013-08-06 23:21:00,
2013-08-06 18:27:00,87.6,75.7,29.80,WSW,252,0.0,1.0,68,0.00,,,0.43,Wunderground v.1.15,2013-08-06 23:27:00,
2013-08-06 18:32:00,87.4,75.5,29.80,WSW,252,1.0,6.0,68,0.00,,,0.43,Wunderground v.1.15,2013-08-06 23:32:00,
2013-08-06 18:38:00,87.4,76.0,29.80,WSW,252,0.0,6.0,69,0.00,,,0.43,Wunderground v.1.15,2013-08-06 23:38:00,
2013-08-06 18:44:00,87.5,75.6,29.80,WSW,252,0.0,6.0,68,0.00,,,0.43,Wunderground v.1.15,2013-08-06 23:44:00,
2013-08-06 18:49:00,87.4,76.4,29.79,WSW,252,0.0,6.0,70,0.00,,,0.43,Wunderground v.1.15,2013-08-06 23:49:00,
2013-08-06 18:55:00,87.0,77.0,29.79,WSW,252,0.0,1.0,71,0.00,,,0.43,weatherlink.com 1.10,2013-08-06 23:55:00,
2013-08-06 19:00:00,86.4,76.7,29.79,WSW,252,0.0,1.0,73,0.00,,,0.43,Wunderground v.1.15,2013-08-07 00:00:00,
2013-08-06 19:06:00,85.9,75.8,29.79,WSW,252,0.0,1.0,72,0.00,,,0.43,Wunderground v.1.15,2013-08-07 00:06:00,
2013-08-06 19:11:00,85.7,76.5,29.79,WSW,252,0.0,0.0,74,0.00,,,0.43,Wunderground v.1.15,2013-08-07 00:11:00,
2013-08-06 19:18:00,85.6,76.8,29.79,WSW,252,0.0,1.0,75,0.00,,,0.43,Wunderground v.1.15,2013-08-07 00:18:00,
2013-08-06 19:23:00,85.2,76.0,29.80,WSW,252,0.0,0.0,74,0.00,,,0.43,Wunderground v.1.15,2013-08-07 00:23:00,
2013-08-06 19:29:00,84.5,75.7,29.79,WSW,252,0.0,1.0,75,0.00,,,0.43,Wunderground v.1.15,2013-08-07 00:29:00,
2013-08-06 19:35:00,84.1,75.3,29.78,WSW,252,0.0,4.0,75,0.00,,,0.43,Wunderground v.1.15,2013-08-07 00:35:00,
2013-08-06 19:40:00,83.9,77.0,29.79,WSW,252,0.0,2.0,80,0.00,,,0.43,weatherlink.com 1.10,2013-08-07 00:40:00,
2013-08-06 19:45:00,83.6,77.1,29.79,WSW,252,0.0,4.0,81,0.00,,,0.43,Wunderground v.1.15,2013-08-07 00:45:00,
2013-08-06 19:51:00,82.9,76.8,29.80,WSW,238,0.0,4.0,82,0.00,,,0.43,Wunderground v.1.15,2013-08-07 00:51:00,
2013-08-06 19:56:00,82.3,76.3,29.80,WSW,238,0.0,4.0,82,0.00,,,0.43,Wunderground v.1.15,2013-08-07 00:56:00,
2013-08-06 20:02:00,81.8,76.1,29.80,WSW,238,0.0,0.0,83,0.00,,,0.43,Wunderground v.1.15,2013-08-07 01:02:00,
2013-08-06 20:07:00,81.4,76.1,29.81,WSW,238,0.0,1.0,84,0.00,,,0.43,Wunderground v.1.15,2013-08-07 01:07:00,
2013-08-06 20:13:00,80.9,75.2,29.80,West,261,1.0,3.0,83,0.00,,,0.43,Wunderground v.1.15,2013-08-07 01:13:00,
2013-08-06 20:19:00,81.0,75.0,29.80,West,261,1.0,3.0,82,0.00,,,0.43,Wunderground v.1.15,2013-08-07 01:19:00,
2013-08-06 20:24:00,81.1,75.8,29.80,West,261,0.0,1.0,84,0.00,,,0.43,Wunderground v.1.15,2013-08-07 01:24:00,
2013-08-06 20:30:00,80.8,75.5,29.80,West,261,0.0,0.0,84,0.00,,,0.43,Wunderground v.1.15,2013-08-07 01:30:00,
2013-08-06 20:36:00,80.2,75.3,29.80,West,261,0.0,1.0,85,0.00,,,0.43,Wunderground v.1.15,2013-08-07 01:36:00,
2013-08-06 20:42:00,79.5,74.9,29.79,West,261,0.0,1.0,86,0.00,,,0.43,Wunderground v.1.15,2013-08-07 01:42:00,
2013-08-06 20:48:00,79.0,74.8,29.78,West,261,1.0,3.0,87,0.00,,,0.43,Wunderground v.1.15,2013-08-07 01:48:00,
2013-08-06 20:53:00,78.6,74.4,29.78,West,261,1.0,1.0,87,0.00,,,0.43,Wunderground v.1.15,2013-08-07 01:53:00,
2013-08-06 20:59:00,78.1,74.3,29.78,West,261,0.0,1.0,88,0.00,,,0.43,Wunderground v.1.15,2013-08-07 01:59:00,
2013-08-06 21:05:00,77.9,74.1,29.77,West,261,1.0,4.0,88,0.00,,,0.43,Wunderground v.1.15,2013-08-07 02:05:00,
2013-08-06 21:10:00,77.4,74.0,29.77,West,260,0.0,4.0,88,0.00,,,0.43,weatherlink.com 1.10,2013-08-07 02:10:00,
2013-08-06 21:16:00,76.9,73.1,29.78,West,263,1.0,2.0,88,0.00,,,0.43,Wunderground v.1.15,2013-08-07 02:16:00,
2013-08-06 21:21:00,76.7,73.2,29.79,West,265,2.0,4.0,89,0.00,,,0.43,Wunderground v.1.15,2013-08-07 02:21:00,
2013-08-06 21:27:00,77.0,73.5,29.80,NNW,339,4.0,5.0,89,0.00,,,0.43,Wunderground v.1.15,2013-08-07 02:27:00,
2013-08-06 21:33:00,77.4,73.6,29.80,North,355,4.0,6.0,88,0.00,,,0.43,Wunderground v.1.15,2013-08-07 02:33:00,
2013-08-06 21:39:00,77.6,73.8,29.79,North,355,2.0,6.0,88,0.00,,,0.43,Wunderground v.1.15,2013-08-07 02:39:00,
2013-08-06 21:45:00,77.5,73.3,29.81,NW,325,1.0,3.0,87,0.00,,,0.43,Wunderground v.1.15,2013-08-07 02:45:00,
2013-08-06 21:50:00,77.5,73.7,29.81,NNW,344,2.0,3.0,88,0.00,,,0.43,Wunderground v.1.15,2013-08-07 02:50:00,
2013-08-06 21:51:00,77.5,73.7,29.81,NNW,344,2.0,3.0,88,0.00,,,0.43,Wunderground v.1.15,2013-08-07 02:51:00,
2013-08-06 21:56:00,77.7,74.0,29.81,SSE,147,2.0,4.0,88,0.00,,,0.43,weatherlink.com 1.10,2013-08-07 02:56:00,
2013-08-06 22:01:00,77.8,74.0,29.82,NNW,344,1.0,3.0,88,0.00,,,0.43,Wunderground v.1.15,2013-08-07 03:01:00,
2013-08-06 22:08:00,77.9,73.7,29.82,NNW,344,1.0,3.0,87,0.00,,,0.43,Wunderground v.1.15,2013-08-07 03:08:00,
2013-08-06 22:14:00,77.9,74.1,29.82,NNW,344,1.0,1.0,88,0.00,,,0.43,Wunderground v.1.15,2013-08-07 03:14:00,
2013-08-06 22:19:00,77.7,73.9,29.82,NNW,344,0.0,1.0,88,0.00,,,0.43,Wunderground v.1.15,2013-08-07 03:19:00,
2013-08-06 22:25:00,77.3,73.5,29.82,NNW,344,0.0,0.0,88,0.00,,,0.43,Wunderground v.1.15,2013-08-07 03:25:00,
2013-08-06 22:30:00,77.0,73.2,29.83,NNW,344,0.0,2.0,88,0.00,,,0.43,Wunderground v.1.15,2013-08-07 03:30:00,
2013-08-06 22:36:00,76.5,73.0,29.83,NW,317,2.0,7.0,89,0.00,,,0.43,Wunderground v.1.15,2013-08-07 03:36:00,
2013-08-06 22:42:00,76.3,73.0,29.83,NNW,329,3.0,6.0,89,0.00,,,0.43,weatherlink.com 1.10,2013-08-07 03:42:00,
2013-08-06 22:47:00,76.2,73.1,29.84,NNW,329,3.0,7.0,90,0.00,,,0.43,Wunderground v.1.15,2013-08-07 03:47:00,
2013-08-06 22:53:00,76.3,73.1,29.84,NNW,329,3.0,7.0,90,0.00,,,0.43,Wunderground v.1.15,2013-08-07 03:53:00,
2013-08-06 22:58:00,76.2,73.1,29.84,NNW,329,2.0,7.0,90,0.00,,,0.43,Wunderground v.1.15,2013-08-07 03:58:00,
2013-08-06 23:02:00,76.2,73.1,29.84,NNW,329,2.0,3.0,90,0.00,,,0.43,Wunderground v.1.15,2013-08-07 04:02:00,
2013-08-06 23:03:00,76.2,73.1,29.84,NNW,329,2.0,3.0,90,0.00,,,0.43,Wunderground v.1.15,2013-08-07 04:03:00,
2013-08-06 23:04:00,76.2,73.1,29.84,NNW,329,2.0,3.0,90,0.00,,,0.43,Wunderground v.1.15,2013-08-07 04:04:00,
2013-08-06 23:07:00,76.1,73.0,29.83,North,351,2.0,4.0,90,0.00,,,0.43,Wunderground v.1.15,2013-08-07 04:07:00,
2013-08-06 23:10:00,76.1,73.0,29.83,NNW,344,3.0,4.0,90,0.00,,,0.43,Wunderground v.1.15,2013-08-07 04:10:00,
2013-08-06 23:16:00,76.2,73.1,29.83,NNW,342,3.0,4.0,90,0.00,,,0.43,Wunderground v.1.15,2013-08-07 04:16:00,
2013-08-06 23:22:00,76.2,73.1,29.83,NNW,342,2.0,3.0,90,0.00,,,0.43,Wunderground v.1.15,2013-08-07 04:22:00,
2013-08-06 23:28:00,76.1,72.6,29.83,NNW,342,2.0,3.0,89,0.00,,,0.43,Wunderground v.1.15,2013-08-07 04:28:00,
2013-08-06 23:33:00,76.0,72.5,29.83,NNW,340,2.0,5.0,89,0.00,,,0.43,Wunderground v.1.15,2013-08-07 04:33:00,
2013-08-06 23:39:00,75.8,72.3,29.82,NNW,335,3.0,6.0,89,0.00,,,0.43,Wunderground v.1.15,2013-08-07 04:39:00,
2013-08-06 23:45:00,75.5,72.0,29.82,North,349,2.0,4.0,89,0.00,,,0.43,Wunderground v.1.15,2013-08-07 04:45:00,
2013-08-06 23:51:00,75.3,71.8,29.83,North,349,2.0,4.0,89,0.00,,,0.43,Wunderground v.1.15,2013-08-07 04:51:00,
2013-08-06 23:57:00,75.2,72.0,29.83,North,349,0.0,3.0,89,0.00,,,0.43,weatherlink.com 1.10,2013-08-07 04:57:00,